Time;durP1;ratioP1;P1;durP2;ratioP2;P2;SDS_P1;SDS_P2;PMS_P1;PMS_P2;Temp;Humidity;BMP_temperature;BMP_pressure;BME280_temperature;BME280_humidity;BME280_pressure;Samples;Min_cycle;Max_cycle;Signal;HPM_P1;HPM_P2
2022/12/18 00:00:53;;;;;;;;;;;;;;;17.35;49.29;101473.84;5094488;28;1141;-51
2022/12/18 00:03:18;;;;;;;;;;;;;;;17.97;49.56;101474.31;5098414;28;972;-47
2022/12/18 00:05:50;;;;;;;;;;;;;;;18.35;49.18;101471.50;5098677;28;1085;-47
2022/12/18 00:08:15;;;;;;;;;;;;;;;17.49;49.39;101484.38;5098841;28;1160;-51
2022/12/18 00:10:41;;;;;;;;;;;;;;;17.56;49.36;101480.34;5098342;28;1105;-49
2022/12/18 00:13:06;;;;;;;;;;;;;;;17.62;49.90;101501.28;5098149;28;1003;-49
2022/12/18 00:15:33;;;;;;;;;;;;;;;17.28;48.93;101486.97;5098504;28;1054;-46
2022/12/18 00:17:59;;;;;;;;;;;;;;;18.43;48.90;101490.25;5098421;28;1976;-48
2022/12/18 00:20:25;;;;;;;;;;;;;;;17.51;49.51;101496.78;5098567;28;1058;-50
2022/12/18 00:22:51;;;;;;;;;;;;;;;17.17;48.64;101498.97;5098709;28;1240;-47
2022/12/18 00:25:17;;;;;;;;;;;;;;;18.35;49.01;101504.53;5098463;28;1221;-49
2022/12/18 00:27:42;;;;;;;;;;;;;;;17.45;49.75;101515.16;5098507;28;2505;-50
2022/12/18 00:30:08;;;;;;;;;;;;;;;17.22;48.73;101518.25;5098566;28;1114;-49
2022/12/18 00:32:33;;;;;;;;;;;;;;;17.31;49.29;101516.69;5098860;28;1110;-46
2022/12/18 00:35:00;;;;;;;;;;;;;;;17.48;49.03;101537.75;5096568;28;1141;-48
2022/12/18 00:37:25;;;;;;;;;;;;;;;17.18;48.22;101533.59;5096710;28;1331;-51
2022/12/18 00:39:51;;;;;;;;;;;;;;;18.23;48.81;101515.75;5097118;28;1909;-51
2022/12/18 00:45:02;;;;;;;;;;;;;;;17.06;48.60;101523.59;5098614;28;948;-51
2022/12/18 00:47:30;;;;;;;;;;;;;;;17.95;49.32;101526.06;5096697;28;1158;-49
2022/12/18 00:49:56;;;;;;;;;;;;;;;17.30;48.81;101531.50;5097727;28;1093;-48
2022/12/18 00:52:21;;;;;;;;;;;;;;;17.09;48.73;101531.31;5097638;28;1158;-51
2022/12/18 00:54:46;;;;;;;;;;;;;;;17.82;49.30;101530.03;5098004;28;1043;-52
2022/12/18 00:57:12;;;;;;;;;;;;;;;17.09;48.96;101538.72;5098065;28;1034;-50
2022/12/18 00:59:37;;;;;;;;;;;;;;;17.28;48.77;101555.69;5086708;28;2637;-49
2022/12/18 01:02:03;;;;;;;;;;;;;;;17.58;49.37;101537.81;5096861;28;1143;-47
2022/12/18 01:04:30;;;;;;;;;;;;;;;17.11;48.86;101536.56;5096738;28;844;-50
2022/12/18 01:06:56;;;;;;;;;;;;;;;18.81;48.36;101527.56;5095801;28;1004;-52
2022/12/18 01:09:21;;;;;;;;;;;;;;;17.64;49.64;101535.94;5097319;28;1106;-47
2022/12/18 01:11:46;;;;;;;;;;;;;;;17.27;48.42;101532.84;5097205;28;975;-46
2022/12/18 01:14:12;;;;;;;;;;;;;;;16.97;47.72;101532.53;5096471;28;1297;-45
2022/12/18 01:16:37;;;;;;;;;;;;;;;17.87;49.18;101540.25;5097398;28;888;-47
2022/12/18 01:19:03;;;;;;;;;;;;;;;17.14;49.35;101548.94;5097417;28;1905;-47
2022/12/18 01:21:29;;;;;;;;;;;;;;;18.33;49.08;101559.03;5096937;28;1113;-48
2022/12/18 01:23:54;;;;;;;;;;;;;;;18.40;49.49;101549.44;5097554;28;1126;-46
2022/12/18 01:26:22;;;;;;;;;;;;;;;17.60;49.24;101558.47;5096641;28;1085;-48
2022/12/18 01:28:47;;;;;;;;;;;;;;;17.90;49.82;101543.31;5093409;28;2278;-47
2022/12/18 01:31:22;;;;;;;;;;;;;;;17.40;50.00;101548.13;5097106;28;1113;-46
2022/12/18 01:33:48;;;;;;;;;;;;;;;17.17;48.67;101542.94;5097497;28;1149;-47
2022/12/18 01:36:14;;;;;;;;;;;;;;;18.13;49.17;101542.13;5097078;28;1154;-51
2022/12/18 01:38:40;;;;;;;;;;;;;;;17.38;49.37;101544.78;5095433;28;2043;-49
2022/12/18 01:41:06;;;;;;;;;;;;;;;17.08;48.14;101551.66;5097024;28;836;-50
2022/12/18 01:43:41;;;;;;;;;;;;;;;18.08;49.07;101546.78;5095572;28;2234;-49
2022/12/18 01:46:07;;;;;;;;;;;;;;;17.21;49.16;101538.59;5096620;28;983;-49
2022/12/18 01:48:32;;;;;;;;;;;;;;;17.52;49.50;101560.88;5097157;28;1090;-52
2022/12/18 01:51:00;;;;;;;;;;;;;;;17.75;49.23;101570.69;5096783;28;999;-51
2022/12/18 01:53:26;;;;;;;;;;;;;;;17.20;48.69;101580.91;5088548;28;940;-49
2022/12/18 01:55:52;;;;;;;;;;;;;;;18.56;48.80;101582.56;5095469;28;1137;-47
2022/12/18 01:58:17;;;;;;;;;;;;;;;17.53;49.45;101574.38;5087463;28;1914;-50
2022/12/18 02:00:43;;;;;;;;;;;;;;;17.50;49.39;101576.78;5093008;28;1176;-50
2022/12/18 02:03:09;;;;;;;;;;;;;;;17.90;49.57;101568.06;5096452;28;1389;-48
2022/12/18 02:05:53;;;;;;;;;;;;;;;17.32;49.10;101558.75;5095259;28;1142;-45
2022/12/18 02:08:24;;;;;;;;;;;;;;;17.08;47.75;101570.03;5096770;28;1053;-50
2022/12/18 02:11:09;;;;;;;;;;;;;;;18.04;48.86;101584.16;5095497;28;1149;-50
2022/12/18 02:13:37;;;;;;;;;;;;;;;17.32;48.57;101572.50;5096777;28;1065;-51
2022/12/18 02:16:06;;;;;;;;;;;;;;;18.23;48.97;101570.78;5095181;28;1106;-49
2022/12/18 02:18:41;;;;;;;;;;;;;;;17.56;49.27;101584.03;5095052;28;1902;-49
2022/12/18 02:21:13;;;;;;;;;;;;;;;17.13;48.23;101596.75;5094491;28;1423;-48
2022/12/18 02:23:38;;;;;;;;;;;;;;;18.04;49.07;101590.50;5096811;28;1126;-50
2022/12/18 02:26:07;;;;;;;;;;;;;;;17.47;49.62;101585.56;5094906;28;1079;-48
2022/12/18 02:28:34;;;;;;;;;;;;;;;17.39;49.38;101595.94;5095866;28;1764;-49
2022/12/18 02:31:04;;;;;;;;;;;;;;;18.27;48.90;101603.06;5078651;28;1352;-48
2022/12/18 02:33:31;;;;;;;;;;;;;;;17.47;49.17;101607.56;5094930;28;1072;-50
2022/12/18 02:35:56;;;;;;;;;;;;;;;17.20;47.89;101605.63;5096479;28;1114;-47
2022/12/18 02:38:23;;;;;;;;;;;;;;;17.65;49.20;101620.13;5094949;28;1917;-49
2022/12/18 02:40:50;;;;;;;;;;;;;;;17.83;49.50;101622.50;5094719;28;1541;-50
2022/12/18 02:43:17;;;;;;;;;;;;;;;17.30;48.62;101624.97;5094759;28;1212;-51
2022/12/18 02:45:56;;;;;;;;;;;;;;;17.07;47.90;101626.91;5096864;28;1091;-50
2022/12/18 02:48:23;;;;;;;;;;;;;;;17.56;49.12;101648.09;5078271;28;1932;-53
2022/12/18 02:50:52;;;;;;;;;;;;;;;17.16;48.46;101646.53;5094977;28;1229;-49
2022/12/18 02:53:30;;;;;;;;;;;;;;;17.09;47.89;101649.47;5094589;28;1409;-52
2022/12/18 02:55:56;;;;;;;;;;;;;;;17.74;49.01;101655.16;5094653;28;1233;-51
2022/12/18 02:58:37;;;;;;;;;;;;;;;17.18;48.88;101649.03;5086373;28;1980;-50
2022/12/18 03:01:16;;;;;;;;;;;;;;;17.52;48.86;101654.38;5083427;28;1263;-51
2022/12/18 03:03:44;;;;;;;;;;;;;;;17.50;49.02;101651.03;5093894;28;1149;-50
2022/12/18 03:06:14;;;;;;;;;;;;;;;17.01;48.89;101663.69;5094971;28;1162;-49
2022/12/18 03:08:42;;;;;;;;;;;;;;;17.25;48.77;101655.16;5078506;28;1234;-47
2022/12/18 03:11:09;;;;;;;;;;;;;;;17.35;49.05;101662.69;5096178;28;1058;-50
2022/12/18 03:13:40;;;;;;;;;;;;;;;17.44;49.30;101661.16;5095345;28;1034;-49
2022/12/18 03:16:06;;;;;;;;;;;;;;;18.72;48.12;101647.69;5095413;28;1112;-52
2022/12/18 03:18:34;;;;;;;;;;;;;;;17.50;49.22;101645.53;5095671;28;1901;-51
2022/12/18 03:21:00;;;;;;;;;;;;;;;17.22;48.39;101644.66;5096275;28;1150;-52
2022/12/18 03:23:27;;;;;;;;;;;;;;;16.93;47.39;101637.47;5080657;28;1111;-52
2022/12/18 03:25:54;;;;;;;;;;;;;;;18.11;48.99;101643.38;5094458;28;1169;-49
2022/12/18 03:28:21;;;;;;;;;;;;;;;17.37;49.54;101653.09;5090059;28;1848;-48
2022/12/18 03:30:53;;;;;;;;;;;;;;;17.12;48.22;101650.06;5094701;28;1499;-49
2022/12/18 03:33:21;;;;;;;;;;;;;;;17.83;49.17;101649.19;5094395;28;1047;-50
2022/12/18 03:35:49;;;;;;;;;;;;;;;17.19;48.62;101646.00;5094660;28;1156;-48
2022/12/18 03:38:16;;;;;;;;;;;;;;;18.78;48.47;101646.59;5097096;28;1913;-50
2022/12/18 03:41:09;;;;;;;;;;;;;;;17.77;49.35;101646.38;5097560;28;1295;-50
2022/12/18 03:43:55;;;;;;;;;;;;;;;17.22;48.53;101651.03;5074480;28;1668;-50
2022/12/18 03:46:32;;;;;;;;;;;;;;;16.99;47.72;101654.03;5064716;28;1314;-46
2022/12/18 03:49:19;;;;;;;;;;;;;;;17.67;49.48;101649.03;5098163;28;1486;-49
2022/12/18 03:52:03;;;;;;;;;;;;;;;17.12;48.67;101641.81;5098573;28;1075;-48
2022/12/18 03:54:29;;;;;;;;;;;;;;;16.86;47.58;101660.69;5094292;28;1173;-50
2022/12/18 03:57:09;;;;;;;;;;;;;;;18.12;48.38;101660.75;5076726;28;1179;-50
2022/12/18 03:59:34;;;;;;;;;;;;;;;17.23;49.13;101671.06;5088066;28;2595;-48
2022/12/18 04:02:00;;;;;;;;;;;;;;;17.05;48.12;101678.53;5097958;28;1004;-50
2022/12/18 04:04:26;;;;;;;;;;;;;;;17.77;48.88;101690.38;5097803;28;1346;-50
2022/12/18 04:06:51;;;;;;;;;;;;;;;17.12;48.71;101696.78;5080889;28;1123;-50
2022/12/18 04:09:18;;;;;;;;;;;;;;;17.49;49.20;101705.22;5097329;28;1308;-50
2022/12/18 04:11:45;;;;;;;;;;;;;;;17.45;49.26;101715.06;5081184;28;1193;-49
2022/12/18 04:14:13;;;;;;;;;;;;;;;17.46;49.20;101722.22;5098016;28;1246;-50
2022/12/18 04:16:39;;;;;;;;;;;;;;;18.70;48.27;101729.75;5096911;28;1245;-50
2022/12/18 04:19:08;;;;;;;;;;;;;;;17.53;49.24;101730.25;5097464;28;1976;-47
2022/12/18 04:21:38;;;;;;;;;;;;;;;17.18;48.26;101736.97;5097480;28;1248;-47
2022/12/18 04:24:04;;;;;;;;;;;;;;;17.17;48.15;101746.31;5097393;28;1184;-50
2022/12/18 04:26:32;;;;;;;;;;;;;;;17.83;49.43;101750.97;5097134;28;1149;-50
2022/12/18 04:29:12;;;;;;;;;;;;;;;17.21;48.96;101753.78;5093405;28;2519;-50
2022/12/18 04:31:38;;;;;;;;;;;;;;;18.89;48.19;101757.75;5097334;28;1322;-49
2022/12/18 04:34:04;;;;;;;;;;;;;;;17.69;49.82;101773.38;5097403;28;1177;-50
2022/12/18 04:36:35;;;;;;;;;;;;;;;17.32;49.18;101776.75;5097176;28;1204;-50
2022/12/18 04:39:01;;;;;;;;;;;;;;;17.17;48.00;101782.06;5097197;28;1906;-47
2022/12/18 04:41:27;;;;;;;;;;;;;;;18.09;49.43;101779.59;5096253;28;1252;-49
2022/12/18 04:43:53;;;;;;;;;;;;;;;17.38;49.46;101778.47;5097269;28;1309;-47
2022/12/18 04:46:18;;;;;;;;;;;;;;;17.09;48.34;101788.78;5098029;28;1050;-50
2022/12/18 04:48:45;;;;;;;;;;;;;;;16.96;47.40;101798.22;5096891;28;1059;-52
2022/12/18 04:51:10;;;;;;;;;;;;;;;17.64;48.58;101802.72;5098276;28;1185;-61
2022/12/18 04:53:35;;;;;;;;;;;;;;;16.95;48.67;101796.56;5089390;28;1157;-57
2022/12/18 04:56:05;;;;;;;;;;;;;;;17.40;48.74;101803.81;5089457;28;1185;-55
2022/12/18 04:58:30;;;;;;;;;;;;;;;17.36;49.29;101788.06;5090355;28;1969;-56
2022/12/18 05:00:56;;;;;;;;;;;;;;;17.04;49.17;101797.81;5080793;28;1214;-56
2022/12/18 05:03:21;;;;;;;;;;;;;;;18.50;48.58;101803.97;5083032;28;924;-53
2022/12/18 05:05:49;;;;;;;;;;;;;;;17.39;49.63;101804.91;5090734;28;1155;-49
2022/12/18 05:08:14;;;;;;;;;;;;;;;17.14;48.55;101815.50;5077838;28;1086;-52
2022/12/18 05:10:40;;;;;;;;;;;;;;;18.02;49.27;101828.53;5097050;28;1026;-53
2022/12/18 05:13:05;;;;;;;;;;;;;;;17.26;49.11;101827.25;5098050;28;1002;-52
2022/12/18 05:15:31;;;;;;;;;;;;;;;17.05;48.22;101829.66;5097592;28;1026;-54
2022/12/18 05:17:57;;;;;;;;;;;;;;;16.84;48.34;101824.91;5083368;28;1906;-52
2022/12/18 05:20:22;;;;;;;;;;;;;;;17.64;49.27;101833.81;5091086;28;1155;-52
2022/12/18 05:22:48;;;;;;;;;;;;;;;17.14;48.62;101848.50;5085964;28;1353;-51
2022/12/18 05:25:13;;;;;;;;;;;;;;;17.08;48.54;101864.91;5079135;28;1150;-51
2022/12/18 05:27:39;;;;;;;;;;;;;;;17.24;49.14;101860.47;5080181;28;1923;-51
2022/12/18 05:30:04;;;;;;;;;;;;;;;16.91;48.36;101861.31;5079056;28;1145;-49
2022/12/18 05:32:30;;;;;;;;;;;;;;;18.10;48.43;101870.22;5095714;28;1285;-55
2022/12/18 05:34:57;;;;;;;;;;;;;;;17.18;48.98;101872.50;5096722;28;1334;-56
2022/12/18 05:37:22;;;;;;;;;;;;;;;17.18;49.04;101886.22;5085173;28;1188;-54
2022/12/18 05:39:48;;;;;;;;;;;;;;;17.61;49.25;101894.84;5088508;28;1980;-52
2022/12/18 05:42:13;;;;;;;;;;;;;;;17.02;48.68;101907.13;5079123;28;1062;-50
2022/12/18 05:44:38;;;;;;;;;;;;;;;16.94;47.91;101924.00;5077185;28;1047;-53
2022/12/18 05:47:04;;;;;;;;;;;;;;;17.89;48.37;101932.38;5094755;28;995;-53
2022/12/18 05:49:29;;;;;;;;;;;;;;;17.05;49.11;101938.78;5093127;28;971;-54
2022/12/18 05:51:55;;;;;;;;;;;;;;;17.75;49.01;101950.31;5091316;28;1095;-53
2022/12/18 05:54:21;;;;;;;;;;;;;;;17.97;49.08;101944.88;5083519;28;1507;-49
2022/12/18 05:56:47;;;;;;;;;;;;;;;17.24;49.13;101950.38;5081464;28;990;-55
2022/12/18 05:59:12;;;;;;;;;;;;;;;17.69;49.53;101952.16;5077384;28;2089;-55
2022/12/18 06:01:38;;;;;;;;;;;;;;;17.24;49.39;101953.13;5076370;28;1139;-55
2022/12/18 06:04:03;;;;;;;;;;;;;;;17.47;49.55;101965.03;5090490;28;1194;-55
2022/12/18 06:06:28;;;;;;;;;;;;;;;18.22;48.96;101984.84;5083098;28;1196;-53
2022/12/18 06:08:54;;;;;;;;;;;;;;;17.33;49.33;101981.03;5082975;28;1091;-54
2022/12/18 06:11:20;;;;;;;;;;;;;;;17.15;48.08;101995.81;5084509;28;1111;-53
2022/12/18 06:13:46;;;;;;;;;;;;;;;16.90;47.73;102008.00;5097008;28;730;-53
2022/12/18 06:16:11;;;;;;;;;;;;;;;17.81;48.96;102003.50;5080968;28;1198;-54
2022/12/18 06:18:37;;;;;;;;;;;;;;;17.40;49.51;102020.19;5089698;28;1902;-54
2022/12/18 06:21:02;;;;;;;;;;;;;;;17.04;48.42;102022.28;5089973;28;1103;-56
2022/12/18 06:23:28;;;;;;;;;;;;;;;18.13;49.05;102034.84;5090663;28;920;-53
2022/12/18 06:25:53;;;;;;;;;;;;;;;17.26;49.76;102059.00;5076290;28;1162;-50
2022/12/18 06:28:19;;;;;;;;;;;;;;;18.10;48.45;102051.03;5087002;28;1879;-52
2022/12/18 06:30:45;;;;;;;;;;;;;;;17.42;50.02;102059.28;5082573;28;1389;-52
2022/12/18 06:33:10;;;;;;;;;;;;;;;17.06;51.04;102064.09;5096424;28;986;-52
2022/12/18 06:35:36;;;;;;;;;;;;;;;16.88;51.55;102067.84;5087997;28;1250;-53
2022/12/18 06:38:01;;;;;;;;;;;;;;;16.70;51.99;102077.91;5089172;28;1909;-52
2022/12/18 06:40:27;;;;;;;;;;;;;;;16.52;52.31;102075.31;5079620;28;951;-54
2022/12/18 06:42:52;;;;;;;;;;;;;;;16.42;52.36;102093.28;5091659;28;877;-53
2022/12/18 06:45:18;;;;;;;;;;;;;;;16.32;52.50;102098.50;5089545;28;1110;-53
2022/12/18 06:47:43;;;;;;;;;;;;;;;16.17;52.68;102107.25;5087133;28;1122;-52
2022/12/18 06:50:09;;;;;;;;;;;;;;;16.07;52.79;102118.81;5087244;28;1078;-53
2022/12/18 06:52:34;;;;;;;;;;;;;;;15.96;52.91;102116.03;5084821;28;1265;-52
2022/12/18 06:55:00;;;;;;;;;;;;;;;15.89;53.05;102121.63;5092414;28;987;-51
2022/12/18 06:57:25;;;;;;;;;;;;;;;15.78;53.38;102131.50;5083082;28;1931;-51
2022/12/18 06:59:51;;;;;;;;;;;;;;;15.70;53.49;102138.13;5089707;28;1978;-53
2022/12/18 07:02:17;;;;;;;;;;;;;;;15.63;53.46;102140.16;5095598;28;949;-54
2022/12/18 07:04:42;;;;;;;;;;;;;;;15.90;53.34;102139.75;5091492;28;1210;-57
2022/12/18 07:07:08;;;;;;;;;;;;;;;17.23;50.61;102136.44;5083979;28;1184;-54
2022/12/18 07:09:33;;;;;;;;;;;;;;;16.30;53.13;102136.34;5091298;28;1265;-55
2022/12/18 07:11:59;;;;;;;;;;;;;;;15.96;53.58;102137.97;5095805;28;1249;-55
2022/12/18 07:14:24;;;;;;;;;;;;;;;15.77;53.96;102154.50;5097068;28;2342;-54
2022/12/18 07:16:49;;;;;;;;;;;;;;;15.65;54.25;102170.91;5092808;28;1212;-57
2022/12/18 07:19:15;;;;;;;;;;;;;;;15.77;54.08;102179.19;5089610;28;1975;-57
2022/12/18 07:21:40;;;;;;;;;;;;;;;17.31;50.58;102187.47;5084348;28;1025;-57
2022/12/18 07:24:06;;;;;;;;;;;;;;;16.37;52.84;102188.41;5089643;28;1054;-58
2022/12/18 07:26:31;;;;;;;;;;;;;;;15.99;54.02;102187.75;5083827;28;1177;-58
2022/12/18 07:28:57;;;;;;;;;;;;;;;15.78;54.37;102193.72;5079947;28;1070;-59
2022/12/18 07:31:22;;;;;;;;;;;;;;;16.61;52.45;102183.75;5082848;28;1135;-59
2022/12/18 07:33:48;;;;;;;;;;;;;;;16.74;52.08;102183.47;5079909;28;1039;-59
2022/12/18 07:36:14;;;;;;;;;;;;;;;16.10;53.71;102185.25;5084575;28;1169;-59
2022/12/18 07:38:39;;;;;;;;;;;;;;;15.91;54.19;102194.38;5086840;28;1906;-58
2022/12/18 07:41:06;;;;;;;;;;;;;;;15.75;54.46;102189.53;5082279;28;1118;-59
2022/12/18 07:43:31;;;;;;;;;;;;;;;15.99;54.07;102197.88;5099450;28;889;-61
2022/12/18 07:45:57;;;;;;;;;;;;;;;17.06;51.31;102205.09;5091343;28;1101;-57
2022/12/18 07:48:22;;;;;;;;;;;;;;;16.19;53.70;102208.53;5089429;28;1123;-58
2022/12/18 07:50:47;;;;;;;;;;;;;;;15.91;53.98;102218.25;5088519;28;1307;-59
2022/12/18 07:53:14;;;;;;;;;;;;;;;15.71;54.39;102219.34;5092942;28;1491;-60
2022/12/18 07:55:41;;;;;;;;;;;;;;;15.59;54.49;102221.19;5092291;28;1270;-57
2022/12/18 07:58:06;;;;;;;;;;;;;;;16.63;52.82;102214.53;5099348;28;1910;-59
2022/12/18 08:00:32;;;;;;;;;;;;;;;17.01;51.46;102217.88;5097807;28;912;-58
2022/12/18 08:02:57;;;;;;;;;;;;;;;16.17;53.59;102206.03;5089548;28;963;-59
2022/12/18 08:05:22;;;;;;;;;;;;;;;15.90;54.10;102227.53;5093325;28;1171;-60
2022/12/18 08:07:48;;;;;;;;;;;;;;;15.72;54.66;102215.53;5083904;28;853;-57
2022/12/18 08:10:13;;;;;;;;;;;;;;;15.60;54.77;102233.84;5082022;28;1046;-58
2022/12/18 08:12:39;;;;;;;;;;;;;;;16.06;53.84;102232.38;5089023;28;1130;-58
2022/12/18 08:15:05;;;;;;;;;;;;;;;17.32;50.57;102230.38;5085568;28;1082;-58
2022/12/18 08:17:30;;;;;;;;;;;;;;;16.25;53.61;102233.13;5088290;28;1067;-58
2022/12/18 08:19:55;;;;;;;;;;;;;;;15.96;53.99;102236.75;5096877;28;1913;-58
2022/12/18 08:22:21;;;;;;;;;;;;;;;15.73;54.68;102228.16;5086486;28;1286;-60
2022/12/18 08:24:46;;;;;;;;;;;;;;;16.79;52.25;102234.13;5085655;28;1145;-58
2022/12/18 08:27:12;;;;;;;;;;;;;;;16.81;51.81;102232.81;5089410;28;1217;-57
2022/12/18 08:29:38;;;;;;;;;;;;;;;16.13;53.67;102236.91;5094348;28;1199;-56
2022/12/18 08:32:03;;;;;;;;;;;;;;;15.88;54.17;102233.25;5089973;28;919;-58
2022/12/18 08:34:28;;;;;;;;;;;;;;;15.71;54.31;102235.78;5096983;28;1102;-58
2022/12/18 08:36:54;;;;;;;;;;;;;;;17.03;51.88;102229.50;5096206;28;1146;-57
2022/12/18 08:39:19;;;;;;;;;;;;;;;16.51;52.93;102230.16;5098287;28;1980;-58
2022/12/18 08:44:37;;;;;;;;;;;;;;;16.02;54.02;102220.19;5086769;28;1193;-57
2022/12/18 08:44:40;;;;;;;;;;;;;;;15.74;54.55;102229.84;5084940;28;897;-58
2022/12/18 08:47:05;;;;;;;;;;;;;;;15.63;54.85;102233.38;5084280;28;1042;-58
2022/12/18 08:49:31;;;;;;;;;;;;;;;17.19;51.42;102233.38;5087103;28;1209;-58
2022/12/18 08:51:59;;;;;;;;;;;;;;;16.54;52.68;102232.47;5085340;28;1046;-57
2022/12/18 08:54:25;;;;;;;;;;;;;;;16.06;54.10;102237.00;5077823;28;1065;-57
2022/12/18 08:56:50;;;;;;;;;;;;;;;15.82;54.50;102233.34;5080516;28;1006;-58
2022/12/18 08:59:16;;;;;;;;;;;;;;;15.62;54.58;102233.59;5098213;28;1909;-57
2022/12/18 09:01:42;;;;;;;;;;;;;;;15.57;54.86;102239.75;5088037;28;1136;-57
2022/12/18 09:04:07;;;;;;;;;;;;;;;17.07;51.58;102234.25;5086176;28;1101;-57
2022/12/18 09:06:33;;;;;;;;;;;;;;;16.53;52.72;102225.28;5082953;28;1201;-57
2022/12/18 09:08:58;;;;;;;;;;;;;;;16.05;53.84;102225.19;5086570;28;1118;-58
2022/12/18 09:11:25;;;;;;;;;;;;;;;15.81;54.31;102228.94;5090596;28;1014;-58
2022/12/18 09:13:50;;;;;;;;;;;;;;;15.62;54.68;102228.13;5077634;28;1081;-58
2022/12/18 09:16:16;;;;;;;;;;;;;;;15.61;54.99;102223.69;5087110;28;1131;-56
2022/12/18 09:18:41;;;;;;;;;;;;;;;17.19;51.42;102228.72;5095343;28;1993;-57
2022/12/18 09:21:07;;;;;;;;;;;;;;;16.54;52.71;102216.81;5097091;28;1130;-59
2022/12/18 09:23:32;;;;;;;;;;;;;;;15.97;54.19;102211.81;5097015;28;1502;-58
2022/12/18 09:25:58;;;;;;;;;;;;;;;15.73;54.74;102214.44;5083576;28;1114;-59
2022/12/18 09:28:24;;;;;;;;;;;;;;;15.63;54.71;102227.91;5096365;28;1192;-54
2022/12/18 09:30:49;;;;;;;;;;;;;;;16.68;52.56;102222.06;5095745;28;1091;-58
2022/12/18 09:33:15;;;;;;;;;;;;;;;16.91;51.73;102213.84;5094462;28;1284;-59
2022/12/18 09:35:41;;;;;;;;;;;;;;;16.14;53.72;102227.63;5096794;28;1058;-57
2022/12/18 09:38:08;;;;;;;;;;;;;;;15.84;54.38;102232.06;5075898;28;1901;-59
2022/12/18 09:40:40;;;;;;;;;;;;;;;15.69;54.49;102226.94;5081239;28;1032;-58
2022/12/18 09:43:05;;;;;;;;;;;;;;;16.96;51.93;102232.34;5086484;28;1193;-58
2022/12/18 09:45:33;;;;;;;;;;;;;;;16.74;52.26;102227.44;5095807;28;1123;-59
2022/12/18 09:47:58;;;;;;;;;;;;;;;16.12;53.67;102230.59;5078216;28;1123;-60
2022/12/18 09:50:29;;;;;;;;;;;;;;;15.83;54.40;102222.16;5094615;28;1433;-57
2022/12/18 09:52:55;;;;;;;;;;;;;;;15.67;54.82;102218.13;5094038;28;1176;-58
2022/12/18 09:55:23;;;;;;;;;;;;;;;15.90;54.34;102216.56;5093937;28;1306;-58
2022/12/18 09:57:49;;;;;;;;;;;;;;;17.34;50.90;102219.13;5096474;28;1264;-59
2022/12/18 10:00:17;;;;;;;;;;;;;;;16.33;53.51;102212.72;5095712;28;1905;-58
2022/12/18 10:02:43;;;;;;;;;;;;;;;15.92;54.33;102217.16;5095724;28;1238;-58
2022/12/18 10:05:12;;;;;;;;;;;;;;;15.74;54.81;102216.13;5095313;28;1242;-59
2022/12/18 10:07:41;;;;;;;;;;;;;;;15.59;55.00;102210.22;5094380;28;1196;-58
2022/12/18 10:10:08;;;;;;;;;;;;;;;17.03;51.81;102205.56;5096124;28;1296;-59
2022/12/18 10:12:36;;;;;;;;;;;;;;;16.56;52.89;102208.31;5094332;28;1313;-60
2022/12/18 10:15:04;;;;;;;;;;;;;;;16.01;54.10;102213.03;5094157;28;1289;-58
2022/12/18 10:17:48;;;;;;;;;;;;;;;15.77;54.54;102205.75;5094195;28;1074;-60
2022/12/18 10:20:20;;;;;;;;;;;;;;;16.68;52.82;102214.66;5090711;28;1914;-60
2022/12/18 10:23:05;;;;;;;;;;;;;;;16.73;52.22;102201.06;5093753;28;1163;-59
2022/12/18 10:25:35;;;;;;;;;;;;;;;16.02;54.16;102203.72;5095119;28;1273;-58
2022/12/18 10:28:07;;;;;;;;;;;;;;;15.79;54.57;102214.59;5094205;28;1107;-60
2022/12/18 10:30:32;;;;;;;;;;;;;;;15.68;54.65;102216.22;5090996;28;1202;-59
2022/12/18 10:33:04;;;;;;;;;;;;;;;17.18;51.43;102213.31;5086739;28;1125;-58
2022/12/18 10:35:29;;;;;;;;;;;;;;;16.45;53.28;102220.13;5093709;28;1095;-58
2022/12/18 10:38:02;;;;;;;;;;;;;;;16.01;54.11;102218.50;5080933;28;1131;-58
2022/12/18 10:40:27;;;;;;;;;;;;;;;15.79;54.76;102220.94;5081131;28;1930;-57
2022/12/18 10:43:06;;;;;;;;;;;;;;;15.66;55.09;102221.94;5095857;28;977;-59
2022/12/18 10:45:31;;;;;;;;;;;;;;;17.38;51.15;102231.31;5089342;28;1106;-60
2022/12/18 10:47:57;;;;;;;;;;;;;;;16.40;53.34;102234.59;5076344;28;1126;-58
2022/12/18 10:50:28;;;;;;;;;;;;;;;15.98;54.43;102240.94;5089126;28;1227;-56
2022/12/18 10:52:57;;;;;;;;;;;;;;;15.96;54.34;102239.50;5094492;28;1000;-56
2022/12/18 10:55:23;;;;;;;;;;;;;;;17.29;50.90;102233.59;5090956;28;1079;-57
2022/12/18 10:57:48;;;;;;;;;;;;;;;16.36;53.38;102236.13;5081714;28;953;-57
2022/12/18 11:00:21;;;;;;;;;;;;;;;15.98;54.27;102249.16;5084176;28;1978;-56
2022/12/18 11:02:46;;;;;;;;;;;;;;;15.80;54.55;102257.44;5083756;28;1137;-57
2022/12/18 11:05:26;;;;;;;;;;;;;;;15.64;54.91;102246.03;5083723;28;1039;-57
2022/12/18 11:07:53;;;;;;;;;;;;;;;16.35;53.51;102259.97;5086668;28;1153;-55
2022/12/18 11:10:19;;;;;;;;;;;;;;;17.16;51.51;102258.63;5094980;28;998;-56
2022/12/18 11:12:45;;;;;;;;;;;;;;;16.22;53.83;102268.44;5089619;28;1169;-55
2022/12/18 11:15:19;;;;;;;;;;;;;;;15.89;54.61;102265.13;5088494;28;1024;-55
2022/12/18 11:17:44;;;;;;;;;;;;;;;15.71;54.90;102265.97;5089875;28;1507;-58
2022/12/18 11:20:21;;;;;;;;;;;;;;;15.56;55.12;102271.84;5090725;28;1984;-56
2022/12/18 11:22:59;;;;;;;;;;;;;;;17.14;51.65;102267.09;5109121;28;1047;-57
2022/12/18 11:25:28;;;;;;;;;;;;;;;16.58;52.62;102267.44;5080362;28;965;-59
2022/12/18 11:28:17;;;;;;;;;;;;;;;16.05;54.21;102274.59;5083057;28;1151;-57
2022/12/18 11:30:42;;;;;;;;;;;;;;;15.78;54.62;102273.25;5065952;28;1063;-56
2022/12/18 11:33:20;;;;;;;;;;;;;;;15.91;54.77;102278.59;5076563;28;1209;-56
2022/12/18 11:36:03;;;;;;;;;;;;;;;17.13;51.51;102272.84;5082265;28;1097;-59
2022/12/18 11:38:35;;;;;;;;;;;;;;;16.13;54.05;102275.31;5079677;28;1979;-59
2022/12/18 11:41:01;;;;;;;;;;;;;;;15.86;54.56;102275.72;5093334;28;1352;-61
2022/12/18 11:43:32;;;;;;;;;;;;;;;15.68;54.94;102274.66;5094280;28;1471;-61
2022/12/18 11:46:09;;;;;;;;;;;;;;;16.84;52.52;102280.94;5095099;28;1257;-61
2022/12/18 11:48:38;;;;;;;;;;;;;;;16.65;52.50;102269.22;5093427;28;1269;-61
2022/12/18 11:51:04;;;;;;;;;;;;;;;16.03;54.37;102265.78;5095844;28;1256;-62
2022/12/18 11:53:30;;;;;;;;;;;;;;;15.80;54.69;102252.78;5092378;28;1226;-62
2022/12/18 11:56:00;;;;;;;;;;;;;;;15.66;55.02;102251.28;5095440;28;1087;-60
2022/12/18 11:58:35;;;;;;;;;;;;;;;15.88;54.69;102257.13;5092893;28;1984;-60
2022/12/18 12:01:00;;;;;;;;;;;;;;;17.09;51.60;102259.56;5093455;28;1190;-61
2022/12/18 12:03:38;;;;;;;;;;;;;;;16.14;53.86;102257.81;5089346;28;1229;-59
2022/12/18 12:06:07;;;;;;;;;;;;;;;15.82;54.79;102263.53;5088450;28;1202;-60
2022/12/18 12:08:39;;;;;;;;;;;;;;;15.66;54.96;102276.78;5087814;28;1269;-58
2022/12/18 12:11:07;;;;;;;;;;;;;;;16.02;54.39;102277.81;5086227;28;1073;-58
2022/12/18 12:13:51;;;;;;;;;;;;;;;17.45;50.60;102274.09;5098972;28;1248;-58
2022/12/18 12:16:46;;;;;;;;;;;;;;;16.31;53.44;102283.50;5099607;28;1050;-60
2022/12/18 12:19:20;;;;;;;;;;;;;;;15.90;54.41;102282.41;5070910;28;1917;-58
2022/12/18 12:21:52;;;;;;;;;;;;;;;15.71;54.77;102307.09;5082545;28;999;-60
2022/12/18 12:24:29;;;;;;;;;;;;;;;16.16;54.22;102299.56;5087008;28;1134;-56
2022/12/18 12:27:01;;;;;;;;;;;;;;;17.06;51.65;102306.78;5084490;28;1503;-58
2022/12/18 12:29:42;;;;;;;;;;;;;;;16.13;53.92;102319.22;5085690;28;1196;-59
2022/12/18 12:32:15;;;;;;;;;;;;;;;15.85;54.75;102328.88;5085384;28;1101;-59
2022/12/18 12:35:03;;;;;;;;;;;;;;;15.69;54.85;102325.69;5107955;28;1043;-59
2022/12/18 12:37:28;;;;;;;;;;;;;;;17.37;51.06;102321.22;5095809;28;1272;-59
2022/12/18 12:39:54;;;;;;;;;;;;;;;16.41;53.47;102315.84;5094266;28;1906;-58
2022/12/18 12:45:53;;;;;;;;;;;;;;;15.73;54.64;102337.03;5088839;28;1030;-59
2022/12/18 12:48:21;;;;;;;;;;;;;;;16.37;53.55;102342.97;5075466;28;1260;-58
2022/12/18 12:50:47;;;;;;;;;;;;;;;17.16;51.42;102346.56;5090359;28;1122;-58
2022/12/18 12:53:16;;;;;;;;;;;;;;;16.22;53.73;102356.28;5098313;28;1116;-59
2022/12/18 12:55:41;;;;;;;;;;;;;;;15.92;54.71;102348.84;5084664;28;1158;-58
2022/12/18 12:58:13;;;;;;;;;;;;;;;15.77;54.55;102351.97;5097835;28;902;-60